KCEF

Westover Air Reserve Base

Airport
ICAO code
KCEF
Summary
ICAO Region
NAM
ICAO Territory
Location

Springfield, Massachusetts,

Coordinates
42° 11' 52" N , 72° 32' 18" W
KCC
Airport WX
Cumulonimbus
Metar
Observation
KCEF 280910Z AUTO 36008KT 10SM OVC007 03/03 A2999 RMK AO2 SLP163
Station
Chicopee Falls / Westover Air Force Base
Date/Time
2023-03-28 09:10:00
Wind direction
360°
Wind speed
08 kts
Lowest cloud amount
overcast
Temperature
3°C
Dew point
3°C
Humidity
100%
Weather condition
n/a

Description

Westover Air Reserve Base is an Air Force Reserve Command (AFRC) installation located between the Massachusetts communities of Chicopee and Ludlow, 10 km northeast of the central business district of the city of Springfield, Massachusetts.

Climatology

Humid “subtropical”/Continental climate (Köppen climate classification Cfa/Dfa) - characterized by hot, humid summers and cool/cold winters. Significant amounts of precipitation occur in all seasons in most areas. Winter rainfall (and snowfall) is associated with large storms that the westerlies steer from west to east. Most summer rainfall occurs during thunderstorms.

Airport map

Aerial View

SKYbrary Partners:

Safety knowledge contributed by: